Time;durP1;ratioP1;P1;durP2;ratioP2;P2;SDS_P1;SDS_P2;PMS_P1;PMS_P2;Temp;Humidity;BMP_temperature;BMP_pressure;BME280_temperature;BME280_humidity;BME280_pressure;Samples;Min_cycle;Max_cycle;Signal;HPM_P1;HPM_P2
2023/12/18 00:04:57;;;;;;;12.33;5.00;;;8.10;99.90;;;;;;9820398;30;20201;-80
2023/12/18 00:10:19;;;;;;;13.40;5.60;;;8.10;99.90;;;;;;9807830;30;20289;-81
2023/12/18 00:15:40;;;;;;;11.27;6.40;;;8.00;1.00;;;;;;9820200;30;20281;-81
2023/12/18 00:21:01;;;;;;;16.30;5.23;;;8.10;99.90;;;;;;9820690;30;20445;-81
2023/12/18 00:26:23;;;;;;;16.30;5.73;;;8.10;99.90;;;;;;9795108;30;20217;-80
2023/12/18 00:31:45;;;;;;;12.57;5.83;;;8.10;1.00;;;;;;9820700;30;20265;-81
2023/12/18 00:37:06;;;;;;;12.33;5.57;;;8.00;1.00;;;;;;9819104;30;20241;-81
2023/12/18 00:42:27;;;;;;;14.33;5.20;;;8.00;1.00;;;;;;9819101;30;20496;-81
2023/12/18 00:47:49;;;;;;;9.03;4.60;;;7.80;1.00;;;;;;9818593;30;20489;-80
2023/12/18 00:53:10;;;;;;;9.80;4.70;;;7.70;1.00;;;;;;9818554;30;20261;-80
2023/12/18 00:58:32;;;;;;;11.80;4.60;;;7.80;1.00;;;;;;9819058;30;20218;-80
2023/12/18 01:03:53;;;;;;;7.40;4.00;;;7.70;35.50;;;;;;9819300;30;20210;-82
2023/12/18 01:09:14;;;;;;;7.23;3.77;;;7.60;40.90;;;;;;9818382;30;20278;-81
2023/12/18 01:14:36;;;;;;;8.20;3.77;;;7.60;45.30;;;;;;9818689;30;20247;-80
2023/12/18 01:19:57;;;;;;;8.07;4.60;;;7.60;99.90;;;;;;9805763;30;20487;-80
2023/12/18 01:25:19;;;;;;;11.27;3.87;;;7.50;99.90;;;;;;9818203;30;20207;-81
2023/12/18 01:30:40;;;;;;;6.87;3.83;;;7.50;99.90;;;;;;9818049;30;20212;-80
2023/12/18 01:36:01;;;;;;;8.00;4.50;;;7.50;99.90;;;;;;9817482;30;20230;-80
2023/12/18 01:41:23;;;;;;;7.30;3.97;;;7.60;99.90;;;;;;9805217;30;20583;-80
2023/12/18 01:46:45;;;;;;;7.50;3.43;;;7.60;99.90;;;;;;9804765;30;20210;-80
2023/12/18 01:52:07;;;;;;;6.60;3.50;;;7.50;99.90;;;;;;9816966;30;20538;-80
2023/12/18 01:57:28;;;;;;;8.43;3.47;;;7.50;99.90;;;;;;9817297;30;20286;-80
2023/12/18 02:02:49;;;;;;;5.90;3.47;;;7.50;99.90;;;;;;9817067;30;20346;-81
2023/12/18 02:08:11;;;;;;;5.23;2.77;;;7.40;99.90;;;;;;9804676;30;20214;-80
2023/12/18 02:13:32;;;;;;;4.70;2.83;;;7.40;99.90;;;;;;9804460;30;20241;-80
2023/12/18 02:18:54;;;;;;;6.17;3.17;;;7.40;99.90;;;;;;9816877;30;20261;-82
2023/12/18 02:24:15;;;;;;;8.20;3.20;;;7.40;99.90;;;;;;9818011;30;20212;-81
2023/12/18 02:29:36;;;;;;;10.67;3.30;;;7.50;99.90;;;;;;9822201;30;20588;-80
2023/12/18 02:34:58;;;;;;;8.50;3.60;;;7.40;99.90;;;;;;9824157;30;20253;-80
2023/12/18 02:40:19;;;;;;;6.27;3.50;;;7.40;99.90;;;;;;9824720;30;20203;-80
2023/12/18 02:45:40;;;;;;;9.03;3.57;;;7.30;99.90;;;;;;9811043;30;20225;-81
2023/12/18 02:51:02;;;;;;;8.90;3.03;;;7.30;99.90;;;;;;9822701;30;20320;-79
2023/12/18 02:56:25;;;;;;;4.13;2.50;;;7.30;99.90;;;;;;9819239;30;20292;-79
2023/12/18 03:01:46;;;;;;;4.40;2.53;;;7.30;99.90;;;;;;9809989;30;20210;-80
2023/12/18 03:07:08;;;;;;;8.03;3.17;;;7.40;99.90;;;;;;9823516;30;20212;-81
2023/12/18 03:12:29;;;;;;;4.83;2.90;;;7.40;99.90;;;;;;9822915;30;20397;-80
2023/12/18 03:17:50;;;;;;;4.57;2.63;;;7.40;99.90;;;;;;9822160;30;20258;-78
2023/12/18 03:23:12;;;;;;;3.60;2.40;;;7.30;99.90;;;;;;9810883;30;20231;-80
2023/12/18 03:28:33;;;;;;;4.37;2.70;;;7.30;99.90;;;;;;9806230;30;20560;-80
2023/12/18 03:33:54;;;;;;;3.70;2.50;;;7.30;99.90;;;;;;9822652;30;20225;-81
2023/12/18 03:39:15;;;;;;;4.03;2.10;;;7.40;99.90;;;;;;9822047;30;20269;-80
2023/12/18 03:44:36;;;;;;;3.07;1.73;;;7.30;99.90;;;;;;9820734;30;20213;-80
2023/12/18 03:49:58;;;;;;;2.57;2.00;;;7.30;99.90;;;;;;9792121;30;20246;-80
2023/12/18 03:55:19;;;;;;;2.90;1.83;;;7.30;99.90;;;;;;9785585;30;20427;-79
2023/12/18 04:00:41;;;;;;;2.10;1.73;;;7.30;99.90;;;;;;9786242;30;20218;-79
2023/12/18 04:06:06;;;;;;;2.30;1.60;;;7.30;99.90;;;;;;9821329;30;20208;-79
2023/12/18 04:11:27;;;;;;;2.37;1.60;;;7.30;99.90;;;;;;9819913;30;20237;-79
2023/12/18 04:16:48;;;;;;;2.60;1.60;;;7.40;99.90;;;;;;9804911;30;20218;-82
2023/12/18 04:22:09;;;;;;;2.07;1.50;;;7.30;99.90;;;;;;9783768;30;20287;-80
2023/12/18 04:27:31;;;;;;;3.17;1.60;;;7.30;99.90;;;;;;9783551;30;20222;-81
2023/12/18 04:32:52;;;;;;;1.53;1.30;;;7.30;99.90;;;;;;9784314;30;20284;-79
2023/12/18 04:38:13;;;;;;;1.93;1.20;;;7.30;99.90;;;;;;9782963;30;20207;-79
2023/12/18 04:43:34;;;;;;;3.10;1.60;;;7.30;99.90;;;;;;9782619;30;20222;-80
2023/12/18 04:48:55;;;;;;;2.93;1.10;;;7.30;99.90;;;;;;9835894;30;20330;-80
2023/12/18 04:54:17;;;;;;;1.33;1.13;;;7.30;99.90;;;;;;9818228;30;20761;-78
2023/12/18 04:59:38;;;;;;;0.77;0.77;;;7.30;99.90;;;;;;9819346;30;20233;-81
2023/12/18 05:04:59;;;;;;;1.93;1.30;;;7.30;99.90;;;;;;9794789;30;20366;-80
2023/12/18 05:10:20;;;;;;;1.20;0.80;;;7.20;99.90;;;;;;9793503;30;20285;-80
2023/12/18 05:15:42;;;;;;;3.27;1.30;;;7.20;99.90;;;;;;9781819;30;20399;-79
2023/12/18 05:21:04;;;;;;;1.63;1.20;;;7.30;99.90;;;;;;9781824;30;20285;-77
2023/12/18 05:26:25;;;;;;;1.40;1.20;;;7.30;99.90;;;;;;9782300;30;20282;-79
2023/12/18 05:31:46;;;;;;;1.63;1.10;;;7.30;99.90;;;;;;9781463;30;20258;-81
2023/12/18 05:37:07;;;;;;;1.50;1.27;;;7.20;99.90;;;;;;9785319;30;20221;-81
2023/12/18 05:42:28;;;;;;;1.67;1.10;;;7.20;99.90;;;;;;9782369;30;20451;-79
2023/12/18 05:47:49;;;;;;;1.20;1.10;;;7.20;99.90;;;;;;9781879;30;20239;-78
2023/12/18 05:53:10;;;;;;;2.63;1.10;;;7.20;99.90;;;;;;9781702;30;20310;-80
2023/12/18 05:58:31;;;;;;;2.57;1.17;;;7.30;99.90;;;;;;9780822;30;20273;-82
2023/12/18 06:03:52;;;;;;;3.30;1.10;;;7.30;99.90;;;;;;9816798;30;20214;-81
2023/12/18 06:09:14;;;;;;;1.30;1.20;;;7.20;99.90;;;;;;9799540;30;20245;-80
2023/12/18 06:14:35;;;;;;;3.10;1.50;;;7.20;99.90;;;;;;9788932;30;20284;-81
2023/12/18 06:19:57;;;;;;;1.80;1.20;;;7.30;99.90;;;;;;9788834;30;20214;-80
2023/12/18 06:25:19;;;;;;;1.87;1.20;;;7.30;99.90;;;;;;9787419;30;20388;-83
2023/12/18 06:30:40;;;;;;;3.57;1.30;;;7.40;99.90;;;;;;9788668;30;20203;-79
2023/12/18 06:36:01;;;;;;;2.17;1.10;;;7.40;99.90;;;;;;9790450;30;20238;-80
2023/12/18 06:41:22;;;;;;;2.67;1.10;;;7.50;99.90;;;;;;9788250;30;20202;-78
2023/12/18 06:46:43;;;;;;;2.13;1.20;;;7.50;99.90;;;;;;9786511;30;20273;-78
2023/12/18 06:52:05;;;;;;;2.90;1.40;;;7.50;99.90;;;;;;9786295;30;20268;-81
2023/12/18 06:57:26;;;;;;;1.00;0.90;;;7.50;99.90;;;;;;9786474;30;20214;-82
2023/12/18 07:02:47;;;;;;;2.30;1.33;;;7.50;99.90;;;;;;9816071;30;20212;-81
2023/12/18 07:08:09;;;;;;;5.33;1.77;;;7.50;99.90;;;;;;9808529;30;20236;-82
2023/12/18 07:13:30;;;;;;;4.17;2.47;;;7.50;99.90;;;;;;9821454;30;20244;-82
2023/12/18 07:18:52;;;;;;;2.50;1.33;;;7.60;99.90;;;;;;9823359;30;20435;-80
2023/12/18 07:24:14;;;;;;;1.53;1.07;;;7.60;99.90;;;;;;9822329;30;20417;-82
2023/12/18 07:29:35;;;;;;;2.63;1.10;;;7.60;99.90;;;;;;9809543;30;20211;-82
2023/12/18 07:34:59;;;;;;;1.50;1.40;;;7.60;99.90;;;;;;9821961;30;20415;-81
2023/12/18 07:40:21;;;;;;;1.87;0.90;;;7.50;99.90;;;;;;9785327;30;20290;-83
2023/12/18 07:45:43;;;;;;;5.43;2.60;;;7.50;99.90;;;;;;9786366;30;20207;-81
2023/12/18 07:51:04;;;;;;;2.60;1.67;;;7.50;99.90;;;;;;9820649;30;20249;-81
2023/12/18 07:56:25;;;;;;;1.80;1.20;;;7.50;99.90;;;;;;9821893;30;20222;-82
2023/12/18 08:01:46;;;;;;;1.23;1.07;;;7.50;99.90;;;;;;9818851;30;20206;-83
2023/12/18 08:07:08;;;;;;;1.23;0.90;;;7.50;99.90;;;;;;9798719;30;20264;-79
2023/12/18 08:12:29;;;;;;;1.23;1.00;;;7.50;99.90;;;;;;9784552;30;20285;-82
2023/12/18 08:17:50;;;;;;;1.10;1.00;;;7.50;99.90;;;;;;9783698;30;20240;-83
2023/12/18 08:23:12;;;;;;;3.80;1.93;;;7.60;99.90;;;;;;9789784;30;20298;-83
2023/12/18 08:28:33;;;;;;;1.77;1.30;;;7.60;99.90;;;;;;9796965;30;20479;-83
2023/12/18 08:33:55;;;;;;;2.20;1.43;;;7.60;99.90;;;;;;9780057;30;20249;-82
2023/12/18 08:39:16;;;;;;;2.80;2.43;;;7.60;99.90;;;;;;9803520;30;20227;-80
2023/12/18 08:44:37;;;;;;;1.90;1.50;;;7.60;99.90;;;;;;9778465;30;20294;-81
2023/12/18 08:49:58;;;;;;;3.27;1.63;;;7.60;99.90;;;;;;9797112;30;20300;-81
2023/12/18 08:55:19;;;;;;;2.30;1.50;;;7.60;99.90;;;;;;9813829;30;20266;-78
2023/12/18 09:00:42;;;;;;;6.33;2.70;;;7.50;99.90;;;;;;9815013;30;20275;-79
2023/12/18 09:06:03;;;;;;;7.53;2.37;;;7.50;99.90;;;;;;9800802;30;20226;-79
2023/12/18 09:11:24;;;;;;;10.10;3.63;;;7.60;99.90;;;;;;9834029;30;20205;-78
2023/12/18 09:16:47;;;;;;;3.17;1.07;;;7.60;99.90;;;;;;9837359;30;20291;-79
2023/12/18 09:22:09;;;;;;;2.67;1.40;;;7.70;99.90;;;;;;9854708;30;20245;-81
2023/12/18 09:27:33;;;;;;;4.00;1.67;;;7.70;99.90;;;;;;9814233;30;20256;-79
2023/12/18 09:32:54;;;;;;;1.40;1.00;;;7.70;99.90;;;;;;9812313;30;20312;-80
2023/12/18 09:38:15;;;;;;;6.63;3.43;;;7.70;99.90;;;;;;9799026;30;20221;-80
2023/12/18 09:43:37;;;;;;;1.33;1.13;;;7.70;99.90;;;;;;9764793;30;20222;-81
2023/12/18 09:48:58;;;;;;;1.60;1.03;;;7.80;99.90;;;;;;9763571;30;20572;-81
2023/12/18 09:54:25;;;;;;;2.30;1.20;;;7.80;99.90;;;;;;9751770;30;20249;-79
2023/12/18 09:59:46;;;;;;;1.67;1.10;;;7.80;99.90;;;;;;9772401;30;20209;-81
2023/12/18 10:05:08;;;;;;;1.60;1.17;;;7.80;99.90;;;;;;9788791;30;20214;-81
2023/12/18 10:10:29;;;;;;;0.73;0.70;;;7.80;99.90;;;;;;9795885;30;20214;-79
2023/12/18 10:15:53;;;;;;;1.53;1.07;;;7.80;99.90;;;;;;9799857;30;20250;-80
2023/12/18 10:21:24;;;;;;;1.07;0.77;;;7.80;99.90;;;;;;9817824;30;20308;-81
2023/12/18 10:26:49;;;;;;;0.70;0.70;;;7.80;99.90;;;;;;9805249;30;20229;-82
2023/12/18 10:32:11;;;;;;;0.90;0.80;;;7.80;99.90;;;;;;9777525;30;20247;-87
2023/12/18 10:37:33;;;;;;;2.43;0.60;;;7.80;99.90;;;;;;9764551;30;20220;-79
2023/12/18 10:43:23;;;;;;;0.73;0.60;;;7.80;99.90;;;;;;9788722;30;20207;-81
2023/12/18 10:48:49;;;;;;;1.97;1.60;;;7.80;99.90;;;;;;9792269;30;20572;-85
2023/12/18 10:54:11;;;;;;;4.00;1.87;;;7.80;99.90;;;;;;9793330;30;20245;-79
2023/12/18 10:59:34;;;;;;;2.70;1.03;;;7.80;99.90;;;;;;9806431;30;20195;-80
2023/12/18 11:04:56;;;;;;;1.33;1.00;;;7.90;99.90;;;;;;9782586;30;20227;-81
2023/12/18 11:10:18;;;;;;;2.03;1.47;;;7.90;99.90;;;;;;9782637;30;20527;-79
2023/12/18 11:16:09;;;;;;;1.70;1.00;;;7.90;99.90;;;;;;9783277;30;20243;-79
2023/12/18 11:21:34;;;;;;;1.47;1.10;;;7.90;99.90;;;;;;9811508;30;20215;-81
2023/12/18 11:26:55;;;;;;;1.27;1.00;;;7.80;99.90;;;;;;9814455;30;20477;-81
2023/12/18 11:32:44;;;;;;;4.33;1.60;;;7.90;99.90;;;;;;9784459;30;20242;-79
2023/12/18 11:38:12;;;;;;;3.67;1.60;;;7.90;99.90;;;;;;9780540;30;20657;-80
2023/12/18 11:43:41;;;;;;;4.03;1.70;;;7.80;99.90;;;;;;9795345;30;20220;-80
2023/12/18 11:49:03;;;;;;;1.57;0.97;;;7.90;99.90;;;;;;9794045;30;20318;-83
2023/12/18 11:54:25;;;;;;;2.50;1.10;;;7.80;99.90;;;;;;9811550;30;20243;-81
2023/12/18 11:59:46;;;;;;;1.10;0.93;;;7.90;99.90;;;;;;9800306;30;20215;-80
2023/12/18 12:05:09;;;;;;;1.67;0.70;;;8.00;99.90;;;;;;9784292;30;20224;-79
2023/12/18 12:10:41;;;;;;;1.33;0.83;;;8.00;99.90;;;;;;9779519;30;20472;-77
2023/12/18 12:16:03;;;;;;;0.80;0.70;;;8.00;99.90;;;;;;9766998;30;20239;-81
2023/12/18 12:21:24;;;;;;;1.70;0.60;;;8.00;99.90;;;;;;9809949;30;20442;-80
2023/12/18 12:26:48;;;;;;;2.20;0.70;;;8.00;99.90;;;;;;9813520;30;20213;-80
2023/12/18 12:32:11;;;;;;;0.93;0.63;;;8.00;99.90;;;;;;9776883;30;20234;-80
2023/12/18 12:37:33;;;;;;;1.13;0.80;;;8.00;99.90;;;;;;9814690;30;20489;-79
2023/12/18 12:42:55;;;;;;;1.20;1.10;;;8.00;99.90;;;;;;9817263;30;20203;-79
2023/12/18 12:48:16;;;;;;;1.97;1.00;;;8.00;99.90;;;;;;9801525;30;20604;-80
2023/12/18 12:53:39;;;;;;;1.47;1.13;;;7.90;99.90;;;;;;9801606;30;20559;-77
2023/12/18 12:59:01;;;;;;;1.03;0.97;;;7.90;99.90;;;;;;9790430;30;20244;-80
2023/12/18 13:04:22;;;;;;;1.10;1.00;;;7.90;99.90;;;;;;9799339;30;20237;-80
2023/12/18 13:09:43;;;;;;;1.73;1.00;;;7.90;99.90;;;;;;9800644;30;20287;-81
2023/12/18 13:15:05;;;;;;;1.20;1.10;;;7.90;99.90;;;;;;9813013;30;20284;-81
2023/12/18 13:20:26;;;;;;;0.70;0.60;;;8.00;99.90;;;;;;9801372;30;20210;-82
2023/12/18 13:25:47;;;;;;;1.47;0.90;;;8.00;99.90;;;;;;9812534;30;20230;-79
2023/12/18 13:31:09;;;;;;;1.40;0.93;;;8.10;99.90;;;;;;9809747;30;20231;-81
2023/12/18 13:36:31;;;;;;;1.47;0.93;;;8.10;99.90;;;;;;9805352;30;20291;-83
2023/12/18 13:41:55;;;;;;;1.90;1.70;;;8.10;99.90;;;;;;9838347;30;20225;-82
2023/12/18 13:47:17;;;;;;;0.70;0.70;;;8.00;99.90;;;;;;9835832;30;20268;-82
2023/12/18 13:52:39;;;;;;;0.83;0.70;;;7.90;99.90;;;;;;9777025;30;20238;-81
2023/12/18 13:58:00;;;;;;;2.33;0.90;;;7.90;99.90;;;;;;9751965;30;20385;-81
2023/12/18 14:03:21;;;;;;;1.33;1.10;;;7.90;99.90;;;;;;9788261;30;20233;-82
2023/12/18 14:08:42;;;;;;;1.37;1.27;;;7.80;99.90;;;;;;9790010;30;20217;-79
2023/12/18 14:14:04;;;;;;;2.90;1.33;;;7.80;99.90;;;;;;9782064;30;20288;-81
2023/12/18 14:19:25;;;;;;;2.10;1.10;;;7.80;99.90;;;;;;9800382;30;20574;-79
2023/12/18 14:24:47;;;;;;;2.70;1.00;;;7.90;99.90;;;;;;9819319;30;20272;-84
2023/12/18 14:30:10;;;;;;;1.27;1.10;;;7.90;99.90;;;;;;9772426;30;20227;-80
2023/12/18 14:35:31;;;;;;;1.00;0.90;;;7.80;99.90;;;;;;9802871;30;20233;-80
2023/12/18 14:40:52;;;;;;;2.33;1.43;;;7.80;99.90;;;;;;9798355;30;20401;-80
2023/12/18 14:46:14;;;;;;;2.27;1.50;;;7.70;99.90;;;;;;9836573;30;20253;-83
2023/12/18 14:51:36;;;;;;;2.80;1.60;;;7.80;99.90;;;;;;9844697;30;20491;-79
2023/12/18 14:56:57;;;;;;;2.13;1.63;;;7.80;99.90;;;;;;9855140;30;20297;-81
2023/12/18 15:02:19;;;;;;;1.73;1.40;;;7.70;99.90;;;;;;9768255;30;20227;-90
2023/12/18 15:07:41;;;;;;;4.03;2.17;;;7.80;99.90;;;;;;9770500;30;20221;-81
2023/12/18 15:13:02;;;;;;;2.93;2.40;;;7.70;99.90;;;;;;9757374;30;20243;-81
2023/12/18 15:18:23;;;;;;;2.67;1.27;;;7.70;99.90;;;;;;9841464;30;20271;-88
2023/12/18 15:23:45;;;;;;;2.77;2.20;;;7.70;99.90;;;;;;9793851;30;20221;-83
2023/12/18 15:29:07;;;;;;;2.47;1.60;;;7.80;99.90;;;;;;9791839;30;20226;-84
2023/12/18 15:34:28;;;;;;;1.90;1.40;;;7.70;99.90;;;;;;9792005;30;20260;-84
2023/12/18 15:39:51;;;;;;;3.37;1.60;;;7.80;99.90;;;;;;9805731;30;20286;-86
2023/12/18 15:45:13;;;;;;;1.73;1.33;;;7.80;99.90;;;;;;9804666;30;20237;-86
2023/12/18 15:50:34;;;;;;;2.33;1.93;;;7.80;99.90;;;;;;9803674;30;20736;-82
2023/12/18 15:55:57;;;;;;;3.43;1.77;;;7.80;99.90;;;;;;9817090;30;20243;-78
2023/12/18 16:01:18;;;;;;;2.83;2.00;;;7.80;99.90;;;;;;9778719;30;20214;-85
2023/12/18 16:06:41;;;;;;;3.53;2.00;;;7.80;99.90;;;;;;9816355;30;20505;-81
2023/12/18 16:12:03;;;;;;;4.13;2.50;;;7.80;99.90;;;;;;9792348;30;20206;-89
2023/12/18 16:17:30;;;;;;;3.90;2.40;;;7.80;99.90;;;;;;9786078;30;20238;-81
2023/12/18 16:22:52;;;;;;;2.60;1.87;;;7.70;99.90;;;;;;9807312;30;20459;-82
2023/12/18 16:28:13;;;;;;;2.93;1.80;;;7.70;99.90;;;;;;9806551;30;20569;-85
2023/12/18 16:33:35;;;;;;;4.10;2.30;;;7.80;99.90;;;;;;9794181;30;20567;-82
2023/12/18 16:38:56;;;;;;;10.20;4.72;;;7.80;99.90;;;;;;9803714;30;20641;-85
2023/12/18 16:44:18;;;;;;;4.53;3.10;;;7.80;99.90;;;;;;9792166;30;20210;-81
2023/12/18 16:49:40;;;;;;;3.80;2.30;;;7.70;99.90;;;;;;9767936;30;20467;-82
2023/12/18 16:55:02;;;;;;;3.13;2.10;;;7.70;99.90;;;;;;9815936;30;20457;-82
2023/12/18 17:00:23;;;;;;;3.17;2.23;;;7.70;99.90;;;;;;9815431;30;20241;-82
2023/12/18 17:05:44;;;;;;;4.40;2.50;;;7.70;99.90;;;;;;9790991;30;20213;-82
2023/12/18 17:11:05;;;;;;;4.23;3.30;;;7.70;99.90;;;;;;9803683;30;20227;-83
2023/12/18 17:16:27;;;;;;;8.33;2.90;;;7.70;99.90;;;;;;9804513;30;20241;-82
2023/12/18 17:21:48;;;;;;;4.03;2.50;;;7.70;99.90;;;;;;9808618;30;20528;-83
2023/12/18 17:27:09;;;;;;;6.20;3.00;;;7.60;99.90;;;;;;9805530;30;20289;-81
2023/12/18 17:32:31;;;;;;;4.40;3.03;;;7.60;99.90;;;;;;9769575;30;20498;-82
2023/12/18 17:37:52;;;;;;;3.87;3.03;;;7.60;99.90;;;;;;9769048;30;20218;-82
2023/12/18 17:43:13;;;;;;;4.70;2.77;;;7.60;99.90;;;;;;9768957;30;20213;-82
2023/12/18 17:48:34;;;;;;;3.47;2.77;;;7.60;99.90;;;;;;9802556;30;20247;-81
2023/12/18 17:53:56;;;;;;;7.33;4.03;;;7.60;99.90;;;;;;9804379;30;20457;-82
2023/12/18 17:59:17;;;;;;;12.37;6.90;;;7.60;99.90;;;;;;9804357;30;20228;-81
2023/12/18 18:04:39;;;;;;;20.77;9.20;;;7.50;99.90;;;;;;9804871;30;20228;-82
2023/12/18 18:10:00;;;;;;;14.93;7.03;;;7.50;99.90;;;;;;9804738;30;20206;-85
2023/12/18 18:15:22;;;;;;;17.50;8.57;;;7.60;99.90;;;;;;9803741;30;20244;-82
2023/12/18 18:20:43;;;;;;;11.80;6.90;;;7.60;99.90;;;;;;9802974;30;20296;-82
2023/12/18 18:26:04;;;;;;;11.27;6.30;;;7.50;99.90;;;;;;9792196;30;20218;-82
2023/12/18 18:31:25;;;;;;;14.00;7.40;;;7.50;99.90;;;;;;9804402;30;20219;-81
2023/12/18 18:36:47;;;;;;;8.20;4.87;;;7.50;99.90;;;;;;9815545;30;20317;-82
2023/12/18 18:42:08;;;;;;;6.70;4.63;;;7.50;99.90;;;;;;9770419;30;20211;-84
2023/12/18 18:47:29;;;;;;;6.53;4.90;;;7.40;99.90;;;;;;9797355;30;20325;-81
2023/12/18 18:52:51;;;;;;;10.87;6.30;;;7.50;99.90;;;;;;9803297;30;20214;-82
2023/12/18 18:58:12;;;;;;;6.80;4.67;;;7.40;99.90;;;;;;9815302;30;20289;-83
2023/12/18 19:03:33;;;;;;;7.13;4.60;;;7.40;99.90;;;;;;9771055;30;20378;-84
2023/12/18 19:08:55;;;;;;;12.43;7.23;;;7.40;99.90;;;;;;9790830;30;20284;-82
2023/12/18 19:14:16;;;;;;;16.03;7.70;;;7.40;99.90;;;;;;9797753;30;20563;-82
2023/12/18 19:19:40;;;;;;;10.47;6.73;;;7.40;99.90;;;;;;9796031;30;20292;-82
2023/12/18 19:25:01;;;;;;;10.67;6.60;;;7.40;99.90;;;;;;9807431;30;20215;-84
2023/12/18 19:30:22;;;;;;;5.87;5.00;;;7.40;99.90;;;;;;9808311;30;20215;-83
2023/12/18 19:35:43;;;;;;;5.93;5.10;;;7.30;99.90;;;;;;9796091;30;20238;-82
2023/12/18 19:41:05;;;;;;;5.53;4.20;;;7.30;99.90;;;;;;9807985;30;20460;-84
2023/12/18 19:46:26;;;;;;;6.83;4.20;;;7.30;99.90;;;;;;9809487;30;20242;-83
2023/12/18 19:51:48;;;;;;;4.50;4.00;;;7.30;99.90;;;;;;9796913;30;20240;-81
2023/12/18 19:57:09;;;;;;;6.57;4.20;;;7.30;99.90;;;;;;9796143;30;20234;-83
2023/12/18 20:02:31;;;;;;;5.20;4.00;;;7.30;99.90;;;;;;9820222;30;20243;-82
2023/12/18 20:07:53;;;;;;;6.27;4.10;;;7.20;99.90;;;;;;9796035;30;20215;-82
2023/12/18 20:13:14;;;;;;;6.83;4.87;;;7.20;99.90;;;;;;9808078;30;20217;-84
2023/12/18 20:18:35;;;;;;;4.60;3.70;;;7.20;99.90;;;;;;9819785;30;20505;-85
2023/12/18 20:23:57;;;;;;;6.07;5.00;;;7.30;99.90;;;;;;9820274;30;20389;-83
2023/12/18 20:29:18;;;;;;;8.43;5.83;;;7.20;99.90;;;;;;9795641;30;20294;-82
2023/12/18 20:34:40;;;;;;;25.43;12.87;;;7.20;99.90;;;;;;9807490;30;20250;-81
2023/12/18 20:40:01;;;;;;;18.60;9.17;;;7.10;99.90;;;;;;9807103;30;20526;-82
2023/12/18 20:45:22;;;;;;;9.67;6.17;;;7.10;99.90;;;;;;9806310;30;20238;-83
2023/12/18 20:50:48;;;;;;;8.53;5.67;;;7.10;99.90;;;;;;9771356;30;20250;-83
2023/12/18 20:56:09;;;;;;;6.93;5.07;;;7.10;99.90;;;;;;9791610;30;20237;-82
2023/12/18 21:01:33;;;;;;;6.20;4.30;;;7.10;99.90;;;;;;9806582;30;20205;-81
2023/12/18 21:06:54;;;;;;;5.80;4.43;;;7.10;99.90;;;;;;9806239;30;20233;-85
2023/12/18 21:12:16;;;;;;;5.03;4.40;;;7.10;99.90;;;;;;9818287;30;20256;-81
2023/12/18 21:17:37;;;;;;;6.87;5.07;;;7.10;99.90;;;;;;9817614;30;20325;-81
2023/12/18 21:22:59;;;;;;;5.67;5.13;;;7.00;99.90;;;;;;9799861;30;20408;-82
2023/12/18 21:28:20;;;;;;;7.07;4.87;;;7.00;99.90;;;;;;9769706;30;20218;-81
2023/12/18 21:33:41;;;;;;;6.03;5.07;;;7.00;99.90;;;;;;9768797;30;20241;-82
2023/12/18 21:39:03;;;;;;;5.90;4.40;;;7.10;99.90;;;;;;9757112;30;20214;-81
2023/12/18 21:44:25;;;;;;;7.40;5.03;;;7.00;99.90;;;;;;9756964;30;20213;-82
2023/12/18 21:49:46;;;;;;;4.70;4.13;;;7.00;99.90;;;;;;9789223;30;20245;-83
2023/12/18 21:55:07;;;;;;;4.60;4.10;;;7.00;99.90;;;;;;9805303;30;20543;-82
2023/12/18 22:00:29;;;;;;;4.37;3.97;;;6.90;99.90;;;;;;9793687;30;20210;-84
2023/12/18 22:05:52;;;;;;;4.30;3.90;;;7.00;99.90;;;;;;9804699;30;20210;-82
2023/12/18 22:11:14;;;;;;;5.47;4.90;;;7.00;99.90;;;;;;9804610;30;20221;-82
2023/12/18 22:16:35;;;;;;;5.40;4.50;;;7.00;99.90;;;;;;9816420;30;20262;-82
2023/12/18 22:21:57;;;;;;;5.13;4.53;;;7.00;99.90;;;;;;9792288;30;20210;-81
2023/12/18 22:27:18;;;;;;;5.33;4.57;;;7.00;99.90;;;;;;9783045;30;20214;-83
2023/12/18 22:32:39;;;;;;;6.60;5.17;;;6.90;99.90;;;;;;9780367;30;20268;-83
2023/12/18 22:38:00;;;;;;;5.77;4.50;;;6.90;99.90;;;;;;9780483;30;20554;-82
2023/12/18 22:43:23;;;;;;;4.20;3.80;;;6.90;99.90;;;;;;9783252;30;20233;-82
2023/12/18 22:48:44;;;;;;;5.67;4.50;;;6.90;99.90;;;;;;9815020;30;20296;-82
2023/12/18 22:54:06;;;;;;;5.67;3.20;;;6.90;99.90;;;;;;9823538;30;20245;-82
2023/12/18 22:59:27;;;;;;;4.00;3.33;;;6.90;99.90;;;;;;9823357;30;20265;-84
2023/12/18 23:04:48;;;;;;;3.00;2.67;;;6.80;99.90;;;;;;9798415;30;20510;-82
2023/12/18 23:10:10;;;;;;;3.27;2.53;;;6.80;99.90;;;;;;9810699;30;20431;-82
2023/12/18 23:15:32;;;;;;;2.77;2.23;;;6.80;99.90;;;;;;9809340;30;20226;-82
2023/12/18 23:20:53;;;;;;;2.47;1.93;;;6.80;99.90;;;;;;9821877;30;20213;-85
2023/12/18 23:26:14;;;;;;;2.80;2.50;;;6.80;99.90;;;;;;9803069;30;20232;-82
2023/12/18 23:31:37;;;;;;;3.87;3.10;;;6.70;99.90;;;;;;9821630;30;20229;-80
2023/12/18 23:36:58;;;;;;;4.77;3.37;;;6.80;99.90;;;;;;9809315;30;20241;-81
2023/12/18 23:42:19;;;;;;;3.67;2.87;;;6.70;99.90;;;;;;9821945;30;20213;-82
2023/12/18 23:47:47;;;;;;;2.50;2.17;;;6.70;99.90;;;;;;9807898;30;20267;-81
2023/12/18 23:53:08;;;;;;;2.83;2.33;;;6.70;99.90;;;;;;9808804;30;20213;-81
2023/12/18 23:58:30;;;;;;;3.97;2.93;;;6.70;99.90;;;;;;9808696;30;20459;-81
